createdAt,value
2018-07-04T00:02:19.841Z,18.08
2018-07-04T00:05:06.226Z,17.97
2018-07-04T00:07:52.316Z,17.94
2018-07-04T00:10:38.524Z,17.90
2018-07-04T00:13:24.696Z,17.82
2018-07-04T00:16:10.959Z,17.81
2018-07-04T00:18:57.229Z,17.76
2018-07-04T00:21:43.257Z,17.65
2018-07-04T00:24:29.366Z,17.63
2018-07-04T00:27:16.318Z,17.61
2018-07-04T00:30:02.945Z,17.66
2018-07-04T00:32:49.117Z,17.62
2018-07-04T00:35:36.237Z,17.56
2018-07-04T00:38:22.584Z,17.44
2018-07-04T00:41:08.553Z,17.38
2018-07-04T00:43:54.584Z,17.26
2018-07-04T00:46:40.952Z,17.18
2018-07-04T00:49:27.094Z,17.19
2018-07-04T00:52:14.508Z,17.16
2018-07-04T00:55:00.698Z,17.12
2018-07-04T00:57:46.569Z,17.15
2018-07-04T01:00:32.575Z,17.19
2018-07-04T01:03:18.861Z,17.27
2018-07-04T01:06:05.240Z,17.36
2018-07-04T01:08:51.173Z,17.41
2018-07-04T01:11:37.433Z,17.43
2018-07-04T01:14:23.560Z,17.46
2018-07-04T01:17:09.847Z,17.42
2018-07-04T01:19:56.680Z,17.42
2018-07-04T01:22:42.881Z,17.33
2018-07-04T01:25:28.977Z,17.31
2018-07-04T01:28:15.221Z,17.33
2018-07-04T01:31:01.324Z,17.34
2018-07-04T01:33:47.429Z,17.39
2018-07-04T01:36:33.498Z,17.40
2018-07-04T01:39:19.741Z,17.33
2018-07-04T01:42:05.589Z,17.28
2018-07-04T01:44:51.800Z,17.24
2018-07-04T01:47:39.165Z,17.19
2018-07-04T01:50:25.630Z,17.17
2018-07-04T01:53:11.596Z,17.16
2018-07-04T01:55:57.693Z,17.13
2018-07-04T01:58:43.809Z,17.14
2018-07-04T02:01:31.334Z,17.14
2018-07-04T02:04:17.368Z,17.07
2018-07-04T02:07:03.550Z,17.00
2018-07-04T02:09:49.447Z,16.96
2018-07-04T02:12:35.732Z,16.99
2018-07-04T02:15:21.821Z,16.90
2018-07-04T02:18:08.350Z,16.87
2018-07-04T02:20:54.216Z,16.86
2018-07-04T02:23:40.421Z,16.82
2018-07-04T02:26:26.504Z,16.76
2018-07-04T02:29:12.626Z,16.76
2018-07-04T02:31:58.706Z,16.71
2018-07-04T02:34:44.897Z,16.64
2018-07-04T02:37:31.808Z,16.66
2018-07-04T02:40:18.145Z,16.68
2018-07-04T02:43:04.307Z,16.69
2018-07-04T02:45:50.361Z,16.59
2018-07-04T02:48:36.361Z,16.58
2018-07-04T02:51:22.948Z,16.68
2018-07-04T02:54:09.097Z,16.75
2018-07-04T02:56:55.488Z,16.80
2018-07-04T02:59:41.440Z,16.78
2018-07-04T03:02:27.622Z,16.79
2018-07-04T03:05:13.559Z,16.77
2018-07-04T03:07:59.953Z,16.75
2018-07-04T03:10:45.968Z,16.74
2018-07-04T03:13:33.089Z,16.71
2018-07-04T03:16:19.222Z,16.65
2018-07-04T03:19:05.455Z,16.72
2018-07-04T03:21:51.349Z,16.68
2018-07-04T03:24:37.344Z,16.59
2018-07-04T03:27:23.424Z,16.51
2018-07-04T03:30:10.429Z,16.43
2018-07-04T03:32:56.482Z,16.37
2018-07-04T03:35:42.565Z,16.37
2018-07-04T03:38:29.588Z,16.39
2018-07-04T03:41:15.840Z,16.43
2018-07-04T03:44:01.946Z,16.34
2018-07-04T03:46:48.014Z,16.30
2018-07-04T03:49:34.189Z,16.30
2018-07-04T03:52:20.521Z,16.37
2018-07-04T03:55:06.517Z,16.40
2018-07-04T03:57:52.510Z,16.43
2018-07-04T04:00:40.448Z,16.41
2018-07-04T04:03:27.309Z,16.41
2018-07-04T04:06:13.454Z,16.42
2018-07-04T04:08:59.725Z,16.48
2018-07-04T04:11:45.656Z,16.49
2018-07-04T04:14:31.740Z,16.67
2018-07-04T04:17:18.154Z,16.77
2018-07-04T04:20:04.229Z,16.88
2018-07-04T04:22:50.187Z,17.03
2018-07-04T04:25:36.568Z,17.18
2018-07-04T04:28:22.485Z,17.24
2018-07-04T04:31:08.704Z,17.29
2018-07-04T04:33:54.787Z,17.40
2018-07-04T04:36:41.181Z,17.55
2018-07-04T04:39:27.208Z,17.55
2018-07-04T04:42:13.161Z,17.66
2018-07-04T04:44:59.171Z,17.71
2018-07-04T04:47:45.164Z,17.73
2018-07-04T04:50:31.216Z,17.83
2018-07-04T04:53:17.585Z,17.78
2018-07-04T04:56:03.620Z,17.22
2018-07-04T04:58:50.572Z,17.58
2018-07-04T05:01:38.561Z,18.03
2018-07-04T05:04:24.785Z,18.41
2018-07-04T05:07:11.280Z,18.74
2018-07-04T05:09:57.557Z,19.07
2018-07-04T05:12:43.533Z,19.29
2018-07-04T05:15:29.901Z,19.50
2018-07-04T05:18:15.823Z,19.67
2018-07-04T05:21:02.555Z,20.00
2018-07-04T05:23:48.669Z,20.19
2018-07-04T05:26:35.149Z,20.41
2018-07-04T05:29:21.889Z,20.58
2018-07-04T05:32:08.408Z,20.53
2018-07-04T05:34:54.433Z,20.23
2018-07-04T05:37:40.604Z,20.07
2018-07-04T05:40:26.549Z,20.42
2018-07-04T05:43:13.227Z,20.59
2018-07-04T05:45:59.241Z,20.69
2018-07-04T05:48:45.317Z,21.12
2018-07-04T05:51:31.381Z,21.40
2018-07-04T05:54:17.482Z,21.54
2018-07-04T05:57:03.417Z,21.60
2018-07-04T05:59:49.333Z,21.73
2018-07-04T06:02:35.421Z,21.79
2018-07-04T06:05:21.508Z,21.85
2018-07-04T06:08:08.084Z,21.92
2018-07-04T06:10:54.700Z,22.03
2018-07-04T06:13:40.824Z,22.48
2018-07-04T06:16:27.104Z,22.88
2018-07-04T06:19:13.225Z,23.37
2018-07-04T06:21:59.393Z,23.99
2018-07-04T06:24:45.880Z,24.08
2018-07-04T06:27:34.443Z,24.34
2018-07-04T06:30:20.404Z,24.60
2018-07-04T06:33:06.482Z,24.83
2018-07-04T06:35:53.805Z,24.76
2018-07-04T06:38:21.385Z,24.96
2018-07-04T06:40:49.601Z,24.69
2018-07-04T06:43:17.452Z,24.42
2018-07-04T06:45:45.089Z,24.48
2018-07-04T06:48:12.665Z,24.72
2018-07-04T06:50:40.525Z,24.99
2018-07-04T06:53:08.122Z,24.88
2018-07-04T06:55:35.782Z,25.23
2018-07-04T06:58:03.601Z,25.27
2018-07-04T07:00:32.795Z,25.02
2018-07-04T07:03:18.757Z,25.18
2018-07-04T07:06:04.624Z,25.14
2018-07-04T07:08:52.101Z,25.39
2018-07-04T07:11:38.015Z,25.52
2018-07-04T07:14:24.192Z,25.57
2018-07-04T07:17:10.228Z,26.04
